createdAt,value
2023-02-05T00:01:32.591Z,3.70
2023-02-05T00:03:59.697Z,1.00
2023-02-05T00:06:27.044Z,1.00
2023-02-05T00:08:53.936Z,1.00
2023-02-05T00:11:20.827Z,1.00
2023-02-05T00:13:47.662Z,1.00
2023-02-05T00:16:17.226Z,1.00
2023-02-05T00:18:44.236Z,1.00
2023-02-05T00:21:11.681Z,1.00
2023-02-05T00:23:39.440Z,1.00
2023-02-05T00:26:07.591Z,1.00
2023-02-05T00:28:35.637Z,1.00
2023-02-05T00:31:17.636Z,1.00
2023-02-05T00:33:44.684Z,1.00
2023-02-05T00:36:12.953Z,1.00
2023-02-05T00:38:40.701Z,1.00
2023-02-05T00:41:07.869Z,1.00
2023-02-05T00:43:34.684Z,1.00
2023-02-05T00:46:01.494Z,1.00
2023-02-05T00:48:28.341Z,1.00
2023-02-05T00:50:55.702Z,1.00
2023-02-05T00:53:23.611Z,1.00
2023-02-05T00:55:51.073Z,1.00
2023-02-05T00:58:18.230Z,1.00
2023-02-05T01:00:45.642Z,1.00
2023-02-05T01:03:13.132Z,1.00
2023-02-05T01:05:40.586Z,1.00
2023-02-05T01:08:08.853Z,1.00
2023-02-05T01:10:36.058Z,1.00
2023-02-05T01:13:03.823Z,1.00
2023-02-05T01:15:31.407Z,1.00
2023-02-05T01:17:59.880Z,1.00
2023-02-05T01:20:27.292Z,1.00
2023-02-05T01:22:54.082Z,1.00
2023-02-05T01:25:21.041Z,1.00
2023-02-05T01:27:47.856Z,1.00
2023-02-05T01:30:14.799Z,1.00
2023-02-05T01:32:42.389Z,1.00
2023-02-05T01:35:09.573Z,1.00
2023-02-05T01:37:36.456Z,1.00
2023-02-05T01:40:03.553Z,1.00
2023-02-05T01:42:31.923Z,1.00
2023-02-05T01:45:23.537Z,1.00
2023-02-05T01:48:00.621Z,1.00
2023-02-05T01:50:42.397Z,1.00
2023-02-05T01:53:14.519Z,1.00
2023-02-05T01:55:55.106Z,1.00
2023-02-05T01:58:22.748Z,1.00
2023-02-05T02:00:49.924Z,1.00
2023-02-05T02:03:16.975Z,1.00
2023-02-05T02:05:43.816Z,1.00
2023-02-05T02:08:12.496Z,1.00
2023-02-05T02:10:42.113Z,1.00
2023-02-05T02:13:10.163Z,1.00
2023-02-05T02:15:37.614Z,1.00
2023-02-05T02:18:25.612Z,1.00
2023-02-05T02:21:19.605Z,1.00
2023-02-05T02:24:22.250Z,1.00
2023-02-05T02:27:07.581Z,1.00
2023-02-05T02:29:39.695Z,1.00
2023-02-05T02:32:11.722Z,1.00
2023-02-05T02:34:44.974Z,1.00
2023-02-05T02:37:47.096Z,1.00
2023-02-05T02:40:32.632Z,1.00
2023-02-05T02:43:08.792Z,1.00
2023-02-05T02:45:41.788Z,1.00
2023-02-05T02:48:09.373Z,1.00
2023-02-05T02:50:41.557Z,1.00
2023-02-05T02:53:12.718Z,1.00
2023-02-05T02:55:43.670Z,1.00
2023-02-05T02:58:18.932Z,1.00
2023-02-05T03:00:46.919Z,1.00
2023-02-05T03:03:17.335Z,1.00
2023-02-05T03:05:47.798Z,1.00
2023-02-05T03:08:27.724Z,1.00
2023-02-05T03:11:01.704Z,1.00
2023-02-05T03:13:29.125Z,1.00
2023-02-05T03:15:56.059Z,1.00
2023-02-05T03:18:23.433Z,1.00
2023-02-05T03:20:53.803Z,1.00
2023-02-05T03:23:20.847Z,1.00
2023-02-05T03:25:47.721Z,1.00
2023-02-05T03:28:14.965Z,1.00
2023-02-05T03:31:05.541Z,1.00
2023-02-05T03:33:54.943Z,1.00
2023-02-05T03:37:03.432Z,1.00
2023-02-05T03:39:49.261Z,1.00
2023-02-05T03:42:38.263Z,1.00
2023-02-05T03:45:08.183Z,1.00
2023-02-05T03:47:40.954Z,1.00
2023-02-05T03:50:31.211Z,1.00
2023-02-05T03:53:11.131Z,1.00
2023-02-05T03:55:44.908Z,1.00
2023-02-05T03:58:23.084Z,1.00
2023-02-05T04:00:50.531Z,1.00
2023-02-05T04:03:17.616Z,1.00
2023-02-05T04:05:44.649Z,1.00
2023-02-05T04:08:11.499Z,1.00
2023-02-05T04:10:38.318Z,1.00
2023-02-05T04:13:05.166Z,1.00
2023-02-05T04:15:32.173Z,1.00
2023-02-05T04:17:59.226Z,1.00
2023-02-05T04:20:26.032Z,1.00
2023-02-05T04:22:52.874Z,1.00
2023-02-05T04:25:20.620Z,1.00
2023-02-05T04:27:47.504Z,1.00
2023-02-05T04:30:14.495Z,1.00
2023-02-05T04:32:41.271Z,1.00
2023-02-05T04:35:08.375Z,1.00
2023-02-05T04:37:35.196Z,1.00
2023-02-05T04:40:02.138Z,1.00
2023-02-05T04:42:28.939Z,1.00
2023-02-05T04:44:56.054Z,1.00
2023-02-05T04:47:22.891Z,1.00
2023-02-05T04:49:49.683Z,1.00
2023-02-05T04:52:16.542Z,1.00
2023-02-05T04:54:43.406Z,1.00
2023-02-05T04:57:10.228Z,1.00
2023-02-05T04:59:37.056Z,1.00
2023-02-05T05:02:03.879Z,1.00
2023-02-05T05:04:30.802Z,1.00
2023-02-05T05:06:57.609Z,1.00
2023-02-05T05:09:25.254Z,1.00
2023-02-05T05:11:53.158Z,1.00
2023-02-05T05:14:20.302Z,1.00
2023-02-05T05:16:49.080Z,1.00
2023-02-05T05:19:16.445Z,1.00
2023-02-05T05:21:43.258Z,1.00
2023-02-05T05:24:10.056Z,1.00
2023-02-05T05:26:38.042Z,1.00
2023-02-05T05:29:06.409Z,1.00
2023-02-05T05:31:33.258Z,1.00
2023-02-05T05:34:00.127Z,1.00
2023-02-05T05:36:27.061Z,1.00
2023-02-05T05:38:53.947Z,1.00
2023-02-05T05:41:43.674Z,1.00
2023-02-05T05:44:11.248Z,1.00
2023-02-05T05:46:38.031Z,1.00
2023-02-05T05:49:04.910Z,1.00
2023-02-05T05:51:33.311Z,1.00
2023-02-05T05:54:00.253Z,1.00
2023-02-05T05:56:27.165Z,1.00
2023-02-05T05:58:53.981Z,1.00
2023-02-05T06:01:22.885Z,1.00
2023-02-05T06:03:50.180Z,1.00
2023-02-05T06:06:17.052Z,1.00
2023-02-05T06:08:44.040Z,1.00
2023-02-05T06:11:11.120Z,1.00
2023-02-05T06:13:38.011Z,1.00
2023-02-05T06:16:05.316Z,1.00
2023-02-05T06:18:32.132Z,1.00
2023-02-05T06:20:59.004Z,1.00
2023-02-05T06:23:25.920Z,1.00
2023-02-05T06:25:52.772Z,1.00
2023-02-05T06:28:19.661Z,1.00
2023-02-05T06:30:46.766Z,1.00
2023-02-05T06:33:13.761Z,1.00
2023-02-05T06:35:41.722Z,1.00
2023-02-05T06:38:09.021Z,1.00
2023-02-05T06:40:36.341Z,1.00
2023-02-05T06:43:03.667Z,1.00
2023-02-05T06:45:30.573Z,1.00
2023-02-05T06:47:58.242Z,1.00
2023-02-05T06:50:25.444Z,1.00
2023-02-05T06:52:52.604Z,1.00
2023-02-05T06:55:19.685Z,1.00
2023-02-05T06:57:46.535Z,1.00
2023-02-05T07:00:15.833Z,1.00
2023-02-05T07:02:43.187Z,1.00
2023-02-05T07:05:10.091Z,1.00
2023-02-05T07:07:36.979Z,1.00
2023-02-05T07:10:04.305Z,1.00
2023-02-05T07:12:31.544Z,1.00
2023-02-05T07:14:58.372Z,1.00
2023-02-05T07:17:25.435Z,1.00
2023-02-05T07:19:52.354Z,1.00
2023-02-05T07:22:19.257Z,1.00
2023-02-05T07:24:46.088Z,1.00
2023-02-05T07:27:12.908Z,1.00
2023-02-05T07:29:39.701Z,1.00
2023-02-05T07:32:06.532Z,1.00
2023-02-05T07:34:33.473Z,1.00
2023-02-05T07:37:00.318Z,1.00
2023-02-05T07:39:28.173Z,1.00
2023-02-05T07:41:55.037Z,1.00
2023-02-05T07:44:22.311Z,1.00
2023-02-05T07:46:49.274Z,1.00
2023-02-05T07:49:16.104Z,1.00
2023-02-05T07:51:42.958Z,1.00
2023-02-05T07:54:10.971Z,1.00
2023-02-05T07:56:37.767Z,1.00
2023-02-05T07:59:04.675Z,1.00
2023-02-05T08:01:31.915Z,1.00
2023-02-05T08:03:58.752Z,1.00
2023-02-05T08:06:26.120Z,1.00
2023-02-05T08:08:53.217Z,1.00
2023-02-05T08:11:20.177Z,1.00
2023-02-05T08:13:47.099Z,1.00
2023-02-05T08:16:18.277Z,1.00
2023-02-05T08:18:50.225Z,1.00
2023-02-05T08:21:17.969Z,1.00
2023-02-05T08:23:44.904Z,1.00
2023-02-05T08:26:12.430Z,1.00
2023-02-05T08:28:39.252Z,1.00
2023-02-05T08:31:11.135Z,1.00
2023-02-05T08:33:37.972Z,1.00
2023-02-05T08:36:05.212Z,1.00
2023-02-05T08:38:32.074Z,1.00
2023-02-05T08:40:58.882Z,1.00
2023-02-05T08:43:25.701Z,1.00
2023-02-05T08:45:52.509Z,1.00
2023-02-05T08:48:19.421Z,1.00
2023-02-05T08:50:46.417Z,1.00
2023-02-05T08:53:13.280Z,1.00
2023-02-05T08:55:40.117Z,1.00
2023-02-05T08:58:06.963Z,1.00
2023-02-05T09:00:37.873Z,1.00
2023-02-05T09:03:04.645Z,1.00
2023-02-05T09:05:31.513Z,1.00
2023-02-05T09:07:59.154Z,1.00
2023-02-05T09:10:26.007Z,1.00
2023-02-05T09:12:53.138Z,1.00
2023-02-05T09:15:19.979Z,1.00
2023-02-05T09:17:46.931Z,1.00
2023-02-05T09:20:13.845Z,1.00
2023-02-05T09:22:40.766Z,1.00
2023-02-05T09:25:08.002Z,1.00
2023-02-05T09:27:35.021Z,1.00
2023-02-05T09:30:01.910Z,1.00
2023-02-05T09:32:28.729Z,1.00
2023-02-05T09:34:55.600Z,1.00
2023-02-05T09:37:22.825Z,1.00
2023-02-05T09:42:44.857Z,1.00
2023-02-05T09:45:20.447Z,1.00
2023-02-05T09:47:54.791Z,1.00
2023-02-05T09:50:29.288Z,1.00
2023-02-05T09:53:01.693Z,1.00
2023-02-05T09:55:32.757Z,1.00
2023-02-05T09:58:06.312Z,1.00
2023-02-05T10:01:01.099Z,1.00
2023-02-05T10:03:34.350Z,1.00
2023-02-05T10:06:24.441Z,1.00
2023-02-05T10:08:57.092Z,1.00
2023-02-05T10:11:45.491Z,1.00
2023-02-05T10:14:44.604Z,1.00
2023-02-05T10:17:49.684Z,1.00
2023-02-05T10:20:25.171Z,1.00
2023-02-05T10:23:16.668Z,1.00
2023-02-05T10:25:54.184Z,1.00
2023-02-05T10:28:33.178Z,1.00
2023-02-05T10:31:20.727Z,1.00
2023-02-05T10:33:57.491Z,1.00
2023-02-05T10:36:26.829Z,1.00
2023-02-05T10:38:56.438Z,1.00
2023-02-05T10:41:28.469Z,1.00
2023-02-05T10:44:16.074Z,1.00
2023-02-05T10:46:51.530Z,1.00
2023-02-05T10:49:37.170Z,1.00
2023-02-05T10:52:04.548Z,1.00
2023-02-05T10:54:36.099Z,1.00
2023-02-05T10:57:02.889Z,1.00
2023-02-05T10:59:33.999Z,1.00
2023-02-05T11:02:07.330Z,1.00
2023-02-05T11:04:41.173Z,1.00
2023-02-05T11:07:33.026Z,1.00
2023-02-05T11:10:14.270Z,1.00
2023-02-05T11:12:43.185Z,1.00
2023-02-05T11:15:21.143Z,1.00
2023-02-05T11:17:54.175Z,1.00
2023-02-05T11:20:29.260Z,1.00
2023-02-05T11:23:06.695Z,1.00
2023-02-05T11:25:33.913Z,1.00
2023-02-05T11:28:05.632Z,1.00
2023-02-05T11:31:03.189Z,1.00
2023-02-05T11:33:23.207Z,1.00
2023-02-05T11:35:53.633Z,1.00
2023-02-05T11:38:29.955Z,1.00
2023-02-05T11:41:07.971Z,1.00
2023-02-05T11:43:40.424Z,1.00
2023-02-05T11:46:10.446Z,1.00
2023-02-05T11:48:39.472Z,1.00
2023-02-05T11:51:13.829Z,1.00
2023-02-05T11:53:52.162Z,1.00
2023-02-05T11:56:24.958Z,1.00
2023-02-05T11:59:22.153Z,1.00
2023-02-05T12:01:49.025Z,1.00
2023-02-05T12:04:19.648Z,1.00
2023-02-05T12:06:55.274Z,1.00
2023-02-05T12:09:27.517Z,1.00
2023-02-05T12:12:04.152Z,1.00
2023-02-05T12:14:44.905Z,1.00
2023-02-05T12:17:26.831Z,1.00
2023-02-05T12:20:25.914Z,1.00
2023-02-05T12:22:52.647Z,1.00
2023-02-05T12:25:34.297Z,1.00
2023-02-05T12:28:10.367Z,1.00
2023-02-05T12:31:05.357Z,1.00
2023-02-05T12:33:44.262Z,1.00
2023-02-05T12:36:20.437Z,1.00
2023-02-05T12:39:09.224Z,1.00
2023-02-05T12:42:18.189Z,1.00
2023-02-05T12:45:13.796Z,1.00
2023-02-05T12:47:51.690Z,1.00
2023-02-05T12:50:40.034Z,1.00
2023-02-05T12:53:34.056Z,1.00
2023-02-05T12:56:30.669Z,1.00
2023-02-05T12:59:06.939Z,1.00
2023-02-05T13:01:39.457Z,1.00
2023-02-05T13:04:07.793Z,1.00
2023-02-05T13:06:39.414Z,1.00
2023-02-05T13:09:24.301Z,1.00
2023-02-05T13:11:58.887Z,1.00
2023-02-05T13:14:31.804Z,1.00
2023-02-05T13:17:15.505Z,1.00
2023-02-05T13:19:53.592Z,1.00
2023-02-05T13:22:40.945Z,1.00
2023-02-05T13:26:00.172Z,1.00
2023-02-05T13:28:44.799Z,1.00
2023-02-05T13:31:24.205Z,1.00
2023-02-05T13:33:53.241Z,1.00
2023-02-05T13:36:27.232Z,1.00
2023-02-05T13:39:16.293Z,1.00
2023-02-05T13:42:04.282Z,1.00
2023-02-05T13:44:55.927Z,1.00
2023-02-05T13:47:25.650Z,1.00
2023-02-05T13:50:30.217Z,1.00
2023-02-05T13:53:06.192Z,1.00
2023-02-05T13:55:55.966Z,9.20
2023-02-05T13:58:28.826Z,9.10
2023-02-05T14:01:06.453Z,11.50
2023-02-05T14:03:38.124Z,17.20
2023-02-05T14:06:21.760Z,17.20
2023-02-05T14:09:01.755Z,5.60
2023-02-05T14:11:29.566Z,8.50
2023-02-05T14:14:35.026Z,17.00
2023-02-05T14:17:22.833Z,9.20
2023-02-05T14:19:58.359Z,4.20
2023-02-05T14:22:42.376Z,16.90
2023-02-05T14:25:41.591Z,17.00
2023-02-05T14:28:20.475Z,19.70
2023-02-05T14:30:51.687Z,31.60
2023-02-05T14:33:40.909Z,42.90
2023-02-05T14:36:24.291Z,43.80
2023-02-05T14:38:51.042Z,45.80
2023-02-05T14:41:27.488Z,53.20
2023-02-05T14:44:04.495Z,63.40
2023-02-05T14:46:36.513Z,74.20
2023-02-05T14:49:07.136Z,73.00
2023-02-05T14:51:40.554Z,84.70
2023-02-05T14:54:24.061Z,90.80
2023-02-05T14:56:54.377Z,94.60
2023-02-05T14:59:32.153Z,97.30
2023-02-05T15:02:00.045Z,99.90
2023-02-05T15:04:26.911Z,99.90
2023-02-05T15:06:54.763Z,99.90
2023-02-05T15:09:30.153Z,99.90
2023-02-05T15:12:09.291Z,99.90
2023-02-05T15:14:41.897Z,99.90
2023-02-05T15:17:11.532Z,99.90
2023-02-05T15:19:46.696Z,99.90
2023-02-05T15:22:32.526Z,99.90
2023-02-05T15:25:02.156Z,99.90
2023-02-05T15:27:43.878Z,99.90
2023-02-05T15:30:18.119Z,99.90
2023-02-05T15:33:08.319Z,99.90
2023-02-05T15:35:37.652Z,99.90
2023-02-05T15:38:19.731Z,99.90
2023-02-05T15:40:46.810Z,99.90
2023-02-05T15:43:26.834Z,99.90
2023-02-05T15:46:03.508Z,99.90
2023-02-05T15:48:33.378Z,99.90
2023-02-05T15:51:17.316Z,99.90
2023-02-05T15:53:50.331Z,99.90
2023-02-05T15:56:20.341Z,99.90
2023-02-05T15:59:15.311Z,99.90
2023-02-05T16:01:47.952Z,99.90
2023-02-05T16:04:34.684Z,99.90
2023-02-05T16:07:03.094Z,99.90
2023-02-05T16:09:31.384Z,99.90
2023-02-05T16:12:11.206Z,99.90
2023-02-05T16:14:38.450Z,99.90
2023-02-05T16:17:17.210Z,99.90
2023-02-05T16:19:53.532Z,99.90
2023-02-05T16:22:45.294Z,99.90
2023-02-05T16:25:25.891Z,99.90
2023-02-05T16:27:55.017Z,99.90
2023-02-05T16:30:21.908Z,99.90
2023-02-05T16:32:49.128Z,99.90
2023-02-05T16:35:39.418Z,99.90
2023-02-05T16:38:13.334Z,99.90
2023-02-05T16:40:43.229Z,99.90
2023-02-05T16:43:18.994Z,99.90
2023-02-05T16:46:08.497Z,99.90
2023-02-05T16:48:47.724Z,99.90
2023-02-05T16:51:40.813Z,99.90
2023-02-05T16:54:10.906Z,99.90
2023-02-05T16:56:55.817Z,99.90
2023-02-05T16:59:25.897Z,99.90
2023-02-05T17:01:53.883Z,99.90
2023-02-05T17:04:36.988Z,99.90
2023-02-05T17:07:15.828Z,99.90
2023-02-05T17:09:42.763Z,99.90
2023-02-05T17:12:21.898Z,99.90
2023-02-05T17:14:58.685Z,99.90
2023-02-05T17:17:27.044Z,99.90
2023-02-05T17:20:05.948Z,99.90
2023-02-05T17:22:34.544Z,99.90
2023-02-05T17:25:02.122Z,99.90
2023-02-05T17:27:37.633Z,99.90
2023-02-05T17:30:07.094Z,99.90
2023-02-05T17:32:34.046Z,99.90
2023-02-05T17:35:01.517Z,99.90
2023-02-05T17:37:28.486Z,99.90
2023-02-05T17:39:57.598Z,99.90
2023-02-05T17:42:25.945Z,99.90
2023-02-05T17:44:53.853Z,99.90
2023-02-05T17:47:23.574Z,99.90
2023-02-05T17:49:50.403Z,99.90
2023-02-05T17:52:17.474Z,99.90
2023-02-05T17:54:47.664Z,99.90
2023-02-05T17:57:17.755Z,99.90
2023-02-05T17:59:45.135Z,1.00
2023-02-05T18:02:13.162Z,1.00
2023-02-05T18:04:41.201Z,1.00
2023-02-05T18:07:37.948Z,1.00
2023-02-05T18:10:06.305Z,1.00
2023-02-05T18:12:35.670Z,1.00
2023-02-05T18:15:02.534Z,1.00
2023-02-05T18:17:29.585Z,1.00
2023-02-05T18:19:56.535Z,1.00
2023-02-05T18:22:23.371Z,1.00
2023-02-05T18:24:50.247Z,1.00
2023-02-05T18:27:17.151Z,1.00
2023-02-05T18:29:44.017Z,1.00
2023-02-05T18:32:11.235Z,1.00
2023-02-05T18:34:39.930Z,1.00
2023-02-05T18:37:06.995Z,1.00
2023-02-05T18:39:33.828Z,1.00
2023-02-05T18:42:00.781Z,1.00
2023-02-05T18:44:27.735Z,1.00
2023-02-05T18:46:54.650Z,1.00
2023-02-05T18:49:21.676Z,1.00
2023-02-05T18:51:48.677Z,1.00
2023-02-05T18:54:15.470Z,1.00
2023-02-05T18:56:42.375Z,1.00
2023-02-05T18:59:14.297Z,1.00
2023-02-05T19:01:42.073Z,1.00
2023-02-05T19:04:13.139Z,1.00
2023-02-05T19:06:44.974Z,1.00
2023-02-05T19:09:11.986Z,1.00
2023-02-05T19:11:41.659Z,1.00
2023-02-05T19:14:11.749Z,1.00
2023-02-05T19:16:39.611Z,1.00
2023-02-05T19:19:07.330Z,1.00
2023-02-05T19:21:34.739Z,1.00
2023-02-05T19:24:07.109Z,1.00
2023-02-05T19:26:35.740Z,1.00
2023-02-05T19:29:08.953Z,1.00
2023-02-05T19:31:37.481Z,1.00
2023-02-05T19:34:05.835Z,1.00
2023-02-05T19:36:33.301Z,1.00
2023-02-05T19:39:01.619Z,1.00
2023-02-05T19:41:29.361Z,1.00
2023-02-05T19:44:04.870Z,1.00
2023-02-05T19:46:36.745Z,1.00
2023-02-05T19:49:11.732Z,1.00
2023-02-05T19:51:39.193Z,1.00
2023-02-05T19:54:06.750Z,1.00
2023-02-05T19:56:35.642Z,1.00
2023-02-05T19:59:02.870Z,1.00
2023-02-05T20:01:32.185Z,1.00
2023-02-05T20:04:05.306Z,1.00
2023-02-05T20:06:32.452Z,1.00
2023-02-05T20:09:01.770Z,1.00
2023-02-05T20:11:31.920Z,1.00
2023-02-05T20:14:02.299Z,1.00
2023-02-05T20:16:29.164Z,1.00
2023-02-05T20:18:58.180Z,1.00
2023-02-05T20:21:26.519Z,1.00
2023-02-05T20:23:54.120Z,1.00
2023-02-05T20:26:22.322Z,1.00
2023-02-05T20:29:17.397Z,1.00
2023-02-05T20:31:52.644Z,1.00
2023-02-05T20:34:26.017Z,1.00
2023-02-05T20:36:55.808Z,1.00
2023-02-05T20:39:24.885Z,1.00
2023-02-05T20:41:52.456Z,1.00
2023-02-05T20:44:19.924Z,1.00
2023-02-05T20:46:47.189Z,1.00
2023-02-05T20:49:14.664Z,1.00
2023-02-05T20:51:42.651Z,1.00
2023-02-05T20:54:09.935Z,1.00
2023-02-05T20:56:36.990Z,1.00
2023-02-05T20:59:06.770Z,1.00
2023-02-05T21:01:35.909Z,1.00
2023-02-05T21:04:04.534Z,1.00
2023-02-05T21:06:35.546Z,1.00
2023-02-05T21:09:03.044Z,1.00
2023-02-05T21:11:30.618Z,1.00
2023-02-05T21:13:58.851Z,1.00
2023-02-05T21:16:27.116Z,1.00
2023-02-05T21:18:54.387Z,1.00
2023-02-05T21:21:26.649Z,1.00
2023-02-05T21:24:02.436Z,1.00
2023-02-05T21:26:32.795Z,1.00
2023-02-05T21:29:03.052Z,1.00
2023-02-05T21:31:33.978Z,1.00
2023-02-05T21:34:05.808Z,1.00
2023-02-05T21:36:33.671Z,1.00
2023-02-05T21:39:00.881Z,1.00
2023-02-05T21:41:27.781Z,1.00
2023-02-05T21:43:56.986Z,1.00
2023-02-05T21:46:25.343Z,1.00
2023-02-05T21:48:55.263Z,1.00
2023-02-05T21:51:24.324Z,1.00
2023-02-05T21:53:57.380Z,1.00
2023-02-05T21:56:26.487Z,1.00
2023-02-05T21:58:53.651Z,1.00
2023-02-05T22:01:26.547Z,1.00
2023-02-05T22:03:56.585Z,1.00
2023-02-05T22:06:25.847Z,1.00
2023-02-05T22:08:53.107Z,1.20
2023-02-05T22:11:21.855Z,3.10
2023-02-05T22:13:50.726Z,3.00
2023-02-05T22:16:25.374Z,5.90
2023-02-05T22:18:53.166Z,8.20
2023-02-05T22:21:23.327Z,13.20
2023-02-05T22:23:53.340Z,14.90
2023-02-05T22:26:23.210Z,18.10
2023-02-05T22:28:50.985Z,20.40
2023-02-05T22:31:19.706Z,27.70
2023-02-05T22:33:48.716Z,27.30
2023-02-05T22:36:19.217Z,23.20
2023-02-05T22:38:47.114Z,25.50
2023-02-05T22:41:16.204Z,22.90
2023-02-05T22:43:43.208Z,22.90
2023-02-05T22:46:13.084Z,21.00
2023-02-05T22:48:42.059Z,19.60
2023-02-05T22:51:20.706Z,18.90
2023-02-05T22:53:48.889Z,18.00
2023-02-05T22:56:17.166Z,17.90
2023-02-05T22:58:46.579Z,13.70
2023-02-05T23:01:17.713Z,13.00
2023-02-05T23:03:45.918Z,13.00
2023-02-05T23:06:40.835Z,11.30
2023-02-05T23:09:09.030Z,7.80
2023-02-05T23:11:36.079Z,2.70
2023-02-05T23:14:04.997Z,2.70
2023-02-05T23:16:37.760Z,2.70
2023-02-05T23:19:08.861Z,2.70
2023-02-05T23:21:38.051Z,2.70
2023-02-05T23:24:05.340Z,2.60
2023-02-05T23:26:44.316Z,2.60
2023-02-05T23:29:13.461Z,3.10
2023-02-05T23:31:40.955Z,2.60
2023-02-05T23:34:08.142Z,2.60
2023-02-05T23:36:35.006Z,2.50
2023-02-05T23:39:02.001Z,1.00
2023-02-05T23:41:37.702Z,1.00
2023-02-05T23:44:13.417Z,1.50
2023-02-05T23:46:42.940Z,1.00
2023-02-05T23:49:10.426Z,1.00
2023-02-05T23:51:38.479Z,1.00
2023-02-05T23:54:06.404Z,2.50
2023-02-05T23:56:33.275Z,2.60
2023-02-05T23:59:00.501Z,2.60
